Time;durP1;ratioP1;P1;durP2;ratioP2;P2;SDS_P1;SDS_P2;PMS_P1;PMS_P2;Temp;Humidity;BMP_temperature;BMP_pressure;BME280_temperature;BME280_humidity;BME280_pressure;Samples;Min_cycle;Max_cycle;Signal;HPM_P1;HPM_P2
2023/08/26 00:00:28;;;;;;;4.90;3.80;;;;;;;18.20;93.54;98876.45;109757;1277;99434;-59
2023/08/26 00:03:16;;;;;;;4.60;3.60;;;;;;;18.24;93.96;98870.80;109867;1277;22299;-59
2023/08/26 00:05:48;;;;;;;5.60;3.90;;;;;;;18.29;94.61;98856.92;109901;1277;99137;-59
2023/08/26 00:08:18;;;;;;;6.50;3.80;;;;;;;18.36;95.21;98855.91;109895;1276;22289;-59
2023/08/26 00:10:47;;;;;;;9.20;5.70;;;;;;;18.37;94.12;98838.70;109884;1277;100221;-59
2023/08/26 00:13:17;;;;;;;7.20;4.40;;;;;;;18.13;93.55;98840.38;109933;1276;22415;-59
2023/08/26 00:15:46;;;;;;;4.50;3.70;;;;;;;18.06;95.97;98844.21;109968;1276;23123;-58
2023/08/26 00:18:15;;;;;;;6.90;4.00;;;;;;;18.16;96.83;98839.70;109938;1276;99507;-58
2023/08/26 00:20:43;;;;;;;5.80;3.30;;;;;;;18.14;96.35;98835.04;110011;1276;22163;-59
2023/08/26 00:23:12;;;;;;;4.30;3.50;;;;;;;18.10;96.26;98835.77;109911;1276;100084;-58
2023/08/26 00:25:40;;;;;;;4.40;3.40;;;;;;;18.12;97.37;98840.91;109955;1276;22321;-59
2023/08/26 00:28:09;;;;;;;8.60;4.40;;;;;;;18.14;96.85;98831.53;109894;1276;99585;-57
2023/08/26 00:30:37;;;;;;;6.10;3.90;;;;;;;18.10;97.24;98846.17;109981;1276;23050;-58
2023/08/26 00:33:07;;;;;;;6.70;5.00;;;;;;;18.13;98.06;98841.66;109926;1276;22118;-58
2023/08/26 00:35:38;;;;;;;6.10;5.40;;;;;;;18.16;98.05;98833.35;109910;1276;98647;-58
2023/08/26 00:38:07;;;;;;;4.20;3.50;;;;;;;18.15;98.52;98849.24;109975;1276;22302;-58
2023/08/26 00:40:36;;;;;;;4.30;3.70;;;;;;;18.20;99.10;98855.18;109876;1276;99693;-58
2023/08/26 00:43:08;;;;;;;5.10;3.60;;;;;;;18.25;99.44;98851.30;109975;1277;22187;-58
2023/08/26 00:45:42;;;;;;;6.20;4.80;;;;;;;18.26;99.33;98844.38;109992;1276;22536;-58
2023/08/26 00:48:12;;;;;;;4.50;3.90;;;;;;;18.18;99.00;98842.10;109859;1276;99632;-58
2023/08/26 00:50:47;;;;;;;4.70;4.10;;;;;;;18.05;98.45;98839.04;110015;1276;22215;-58
2023/08/26 00:53:16;;;;;;;5.80;5.00;;;;;;;17.93;98.11;98843.11;109863;1277;100413;-58
2023/08/26 00:55:46;;;;;;;5.80;4.60;;;;;;;17.85;99.17;98845.47;110019;1277;22151;-58
2023/08/26 00:58:15;;;;;;;5.20;4.40;;;;;;;17.81;99.70;98849.54;109909;1261;99655;-58
2023/08/26 01:00:44;;;;;;;4.90;4.20;;;;;;;17.80;99.97;98846.45;110014;1276;22311;-58
2023/08/26 01:03:13;;;;;;;5.30;4.30;;;;;;;17.79;99.99;98847.09;110035;1276;22366;-58
2023/08/26 01:05:41;;;;;;;5.40;4.40;;;;;;;17.74;100.00;98852.98;109925;1276;99483;-56
2023/08/26 01:08:11;;;;;;;5.50;4.70;;;;;;;17.73;100.00;98862.03;110003;1277;22149;-56
2023/08/26 01:10:49;;;;;;;7.70;5.60;;;;;;;17.73;100.00;98854.63;109907;1276;99956;-56
2023/08/26 01:13:24;;;;;;;5.80;4.10;;;;;;;17.72;100.00;98853.02;109965;1276;22152;-56
2023/08/26 01:15:55;;;;;;;4.90;4.00;;;;;;;17.74;100.00;98856.49;110018;1276;22999;-57
2023/08/26 01:18:24;;;;;;;4.60;3.90;;;;;;;17.85;100.00;98859.70;109865;1277;99537;-56
2023/08/26 01:20:54;;;;;;;6.50;4.90;;;;;;;17.92;100.00;98859.82;110008;1276;22189;-56
2023/08/26 01:23:40;;;;;;;5.20;4.30;;;;;;;17.95;100.00;98867.26;109931;1276;99752;-57
2023/08/26 01:26:09;;;;;;;5.70;4.00;;;;;;;17.97;100.00;98865.52;109984;1276;22528;-56
2023/08/26 01:28:38;;;;;;;6.10;4.70;;;;;;;17.97;100.00;98870.99;109838;1280;102801;-56
2023/08/26 01:31:12;;;;;;;6.50;3.90;;;;;;;17.92;100.00;98874.58;110006;1276;22357;-56
2023/08/26 01:33:54;;;;;;;5.70;4.60;;;;;;;17.91;100.00;98869.41;110016;1276;22498;-56
2023/08/26 01:36:25;;;;;;;4.50;3.90;;;;;;;17.91;100.00;98865.15;109935;1276;99526;-56
2023/08/26 01:38:57;;;;;;;4.10;3.60;;;;;;;17.93;100.00;98859.35;109997;1276;22292;-55
2023/08/26 01:41:27;;;;;;;4.00;3.60;;;;;;;17.93;100.00;98860.27;109847;1275;100232;-56
2023/08/26 01:43:58;;;;;;;4.30;3.90;;;;;;;17.95;100.00;98855.50;110016;1277;22299;-56
2023/08/26 01:46:36;;;;;;;7.20;5.90;;;;;;;17.97;100.00;98858.48;109942;1276;99933;-56
2023/08/26 01:49:05;;;;;;;4.90;3.40;;;;;;;18.03;100.00;98859.86;110024;1276;22293;-56
2023/08/26 01:51:34;;;;;;;4.20;3.80;;;;;;;18.06;100.00;98859.16;109970;1276;22312;-56
2023/08/26 01:54:06;;;;;;;4.40;4.00;;;;;;;18.06;100.00;98852.89;109873;1277;99816;-56
2023/08/26 01:56:34;;;;;;;3.30;3.00;;;;;;;18.06;100.00;98848.08;109984;1277;22289;-56
2023/08/26 01:59:03;;;;;;;4.60;3.90;;;;;;;18.05;100.00;98846.45;109906;1277;100774;-56
2023/08/26 02:01:35;;;;;;;3.20;2.90;;;;;;;18.00;100.00;98846.87;109977;1277;22386;-56
2023/08/26 02:04:03;;;;;;;3.20;2.80;;;;;;;18.04;100.00;98844.60;110007;1276;22112;-56
2023/08/26 02:06:32;;;;;;;4.00;3.60;;;;;;;18.06;100.00;98839.65;110003;1277;23025;-58
2023/08/26 02:09:01;;;;;;;3.30;3.00;;;;;;;17.95;100.00;98841.52;110000;1276;23470;-58
2023/08/26 02:11:30;;;;;;;3.00;2.70;;;;;;;17.97;100.00;98841.02;109919;1276;100176;-57
2023/08/26 02:13:58;;;;;;;2.80;2.60;;;;;;;17.97;100.00;98839.44;109957;1277;22300;-57
2023/08/26 02:16:27;;;;;;;3.10;2.80;;;;;;;17.92;100.00;98838.89;109920;1267;99864;-57
2023/08/26 02:18:56;;;;;;;3.40;3.10;;;;;;;17.87;100.00;98843.56;110009;1276;22359;-57
2023/08/26 02:21:24;;;;;;;3.60;3.20;;;;;;;17.85;100.00;98843.17;110040;1276;22221;-57
2023/08/26 02:23:53;;;;;;;3.90;3.50;;;;;;;17.86;100.00;98846.42;109926;1276;99876;-58
2023/08/26 02:26:21;;;;;;;5.50;4.40;;;;;;;17.94;100.00;98845.39;110003;1276;22103;-58
2023/08/26 02:28:50;;;;;;;3.90;3.50;;;;;;;18.02;100.00;98840.88;109929;1276;100325;-58
2023/08/26 02:31:19;;;;;;;3.90;3.60;;;;;;;18.05;100.00;98838.02;109983;1276;22294;-57
2023/08/26 02:33:47;;;;;;;3.90;3.40;;;;;;;18.11;100.00;98838.83;110022;1276;22171;-58
2023/08/26 02:36:16;;;;;;;3.60;3.30;;;;;;;18.14;100.00;98840.72;109973;1276;99675;-58
2023/08/26 02:38:44;;;;;;;3.70;3.40;;;;;;;18.15;100.00;98827.09;110004;1277;23111;-58
2023/08/26 02:41:13;;;;;;;3.50;3.10;;;;;;;17.99;100.00;98818.25;109950;1277;99697;-57
2023/08/26 02:43:42;;;;;;;2.90;2.70;;;;;;;17.94;100.00;98813.86;109933;1279;22324;-58
2023/08/26 02:46:11;;;;;;;3.30;3.00;;;;;;;17.90;100.00;98811.56;109918;1276;99921;-57
2023/08/26 02:48:39;;;;;;;3.80;3.50;;;;;;;17.81;100.00;98814.51;110042;1277;22293;-57
2023/08/26 02:51:08;;;;;;;3.10;2.80;;;;;;;17.82;100.00;98810.52;109979;1277;22160;-57
2023/08/26 02:53:37;;;;;;;3.90;3.40;;;;;;;17.78;100.00;98808.27;109938;1276;99720;-57
2023/08/26 02:56:05;;;;;;;3.90;3.50;;;;;;;17.77;100.00;98808.52;110003;1277;22337;-57
2023/08/26 02:58:34;;;;;;;3.00;2.80;;;;;;;17.76;100.00;98810.55;109933;1276;100981;-57
2023/08/26 03:01:02;;;;;;;3.30;3.00;;;;;;;17.74;100.00;98808.66;110007;1277;22263;-57
2023/08/26 03:03:31;;;;;;;3.90;3.60;;;;;;;17.74;100.00;98809.10;109992;1277;22366;-57
2023/08/26 03:06:00;;;;;;;3.50;3.20;;;;;;;17.74;100.00;98808.41;109897;1276;99864;-57
2023/08/26 03:08:29;;;;;;;2.90;2.60;;;;;;;17.80;100.00;98815.34;110000;1277;22378;-57
2023/08/26 03:11:00;;;;;;;4.10;3.70;;;;;;;17.77;100.00;98826.96;109923;1277;99697;-57
2023/08/26 03:13:29;;;;;;;4.30;3.90;;;;;;;17.82;100.00;98831.00;110001;1277;22881;-57
2023/08/26 03:16:05;;;;;;;3.70;3.40;;;;;;;17.86;100.00;98830.94;110013;1277;22231;-58
2023/08/26 03:18:34;;;;;;;4.50;4.00;;;;;;;17.86;100.00;98826.02;109928;1276;22297;-57
2023/08/26 03:21:04;;;;;;;4.40;3.60;;;;;;;17.89;100.00;98823.65;109987;1277;22321;-58
2023/08/26 03:23:34;;;;;;;3.80;3.40;;;;;;;17.85;100.00;98824.66;109932;1276;100167;-57
2023/08/26 03:26:04;;;;;;;3.50;3.20;;;;;;;17.84;100.00;98818.97;109927;1280;22399;-57
2023/08/26 03:28:36;;;;;;;4.00;3.60;;;;;;;17.81;100.00;98810.67;109948;1276;99794;-57
2023/08/26 03:31:05;;;;;;;4.10;3.70;;;;;;;17.73;100.00;98806.04;109996;1277;22147;-57
2023/08/26 03:33:34;;;;;;;3.80;3.50;;;;;;;17.68;100.00;98804.58;109967;1277;22162;-57
2023/08/26 03:36:04;;;;;;;4.10;3.70;;;;;;;17.63;100.00;98808.30;109940;1277;100263;-57
2023/08/26 03:38:36;;;;;;;4.00;3.60;;;;;;;17.56;100.00;98812.48;109949;1278;22990;-57
2023/08/26 03:41:05;;;;;;;3.50;3.20;;;;;;;17.54;100.00;98816.59;109896;1276;99954;-58
2023/08/26 03:43:34;;;;;;;3.30;3.00;;;;;;;17.55;100.00;98816.96;109966;1276;22492;-57
2023/08/26 03:46:04;;;;;;;3.80;3.50;;;;;;;17.54;100.00;98814.24;109986;1276;22975;-58
2023/08/26 03:48:33;;;;;;;3.60;3.20;;;;;;;17.55;100.00;98814.67;110005;1277;22274;-57
2023/08/26 03:51:02;;;;;;;3.90;3.50;;;;;;;17.60;100.00;98817.91;109998;1271;22151;-57
2023/08/26 03:53:32;;;;;;;3.70;3.10;;;;;;;17.60;100.00;98814.23;109900;1277;100082;-57
2023/08/26 03:56:03;;;;;;;3.90;3.50;;;;;;;17.58;100.00;98816.00;109993;1277;22285;-57
2023/08/26 03:58:32;;;;;;;3.50;3.20;;;;;;;17.58;100.00;98823.77;109913;1276;103657;-57
2023/08/26 04:01:02;;;;;;;3.60;3.30;;;;;;;17.56;100.00;98824.64;109976;1276;22845;-57
2023/08/26 04:03:31;;;;;;;2.70;2.50;;;;;;;17.53;100.00;98818.45;109972;1276;22427;-57
2023/08/26 04:06:02;;;;;;;3.50;3.20;;;;;;;17.54;100.00;98819.73;109911;1267;99631;-57
2023/08/26 04:08:32;;;;;;;3.20;2.90;;;;;;;17.54;100.00;98822.75;110000;1277;22260;-57
2023/08/26 04:11:01;;;;;;;3.90;2.90;;;;;;;17.56;100.00;98823.02;109849;1271;99872;-57
2023/08/26 04:13:30;;;;;;;4.00;3.20;;;;;;;17.59;100.00;98819.31;110023;1261;22894;-57
2023/08/26 04:16:02;;;;;;;3.50;3.20;;;;;;;17.58;100.00;98818.61;109998;1276;22308;-57
2023/08/26 04:18:31;;;;;;;3.20;2.90;;;;;;;17.53;100.00;98823.00;110004;1276;22406;-57
2023/08/26 04:26:00;;;;;;;3.50;3.20;;;;;;;17.33;100.00;98818.83;109163;1286;22183;-58
2023/08/26 04:28:29;;;;;;;2.80;2.60;;;;;;;17.22;100.00;98818.58;109106;1286;99873;-58
2023/08/26 04:31:01;;;;;;;3.00;2.30;;;;;;;17.12;100.00;98815.80;109194;1286;22396;-57
2023/08/26 04:33:29;;;;;;;3.60;3.30;;;;;;;17.08;100.00;98818.23;109221;1286;22443;-58
2023/08/26 04:35:58;;;;;;;2.90;2.70;;;;;;;17.09;100.00;98822.04;109087;1286;100012;-57
2023/08/26 04:38:26;;;;;;;3.30;3.00;;;;;;;17.07;100.00;98827.27;109164;1287;23198;-57
2023/08/26 04:40:56;;;;;;;2.60;2.40;;;;;;;17.06;100.00;98829.63;109141;1289;100041;-57
2023/08/26 04:43:25;;;;;;;4.00;3.60;;;;;;;17.09;100.00;98829.52;109236;1286;22299;-57
2023/08/26 04:45:55;;;;;;;3.60;3.10;;;;;;;17.13;100.00;98828.68;109248;1286;23353;-57
2023/08/26 04:48:24;;;;;;;4.10;3.60;;;;;;;17.12;100.00;98822.83;109099;1286;100244;-57
2023/08/26 04:50:52;;;;;;;3.70;3.40;;;;;;;17.13;100.00;98821.77;109250;1287;22160;-57
2023/08/26 04:53:21;;;;;;;3.30;2.90;;;;;;;17.28;100.00;98827.02;109143;1286;99921;-57
2023/08/26 04:55:51;;;;;;;3.90;3.50;;;;;;;17.44;100.00;98821.20;109217;1286;22354;-57
2023/08/26 04:58:21;;;;;;;3.70;3.40;;;;;;;17.58;100.00;98814.96;109130;1287;100047;-59
2023/08/26 05:00:50;;;;;;;3.80;3.50;;;;;;;17.77;100.00;98817.66;109536;1276;22305;-57
2023/08/26 05:03:19;;;;;;;4.50;3.70;;;;;;;17.90;100.00;98818.99;109980;1277;22191;-56
2023/08/26 05:05:47;;;;;;;2.90;2.70;;;;;;;18.05;100.00;98815.64;109958;1277;99706;-57
2023/08/26 05:08:16;;;;;;;3.40;3.10;;;;;;;18.09;100.00;98822.42;110012;1277;22167;-57
2023/08/26 05:10:45;;;;;;;4.00;3.60;;;;;;;18.24;100.00;98823.92;109979;1275;99912;-57
2023/08/26 05:13:13;;;;;;;3.60;2.50;;;;;;;18.39;100.00;98822.84;110015;1276;22297;-57
2023/08/26 05:15:42;;;;;;;6.20;5.30;;;;;;;18.44;100.00;98825.91;110008;1267;22394;-58
2023/08/26 05:18:10;;;;;;;8.20;6.70;;;;;;;18.27;100.00;98832.79;109898;1277;99753;-58
2023/08/26 05:20:44;;;;;;;15.50;11.10;;;;;;;18.48;100.00;98835.77;110041;1277;22869;-58
2023/08/26 05:23:14;;;;;;;21.20;17.30;;;;;;;18.78;100.00;98839.87;109939;1277;100146;-58
2023/08/26 05:25:46;;;;;;;19.70;14.50;;;;;;;18.91;100.00;98837.64;110048;1276;22322;-58
2023/08/26 05:28:14;;;;;;;24.00;17.10;;;;;;;19.06;100.00;98835.09;109960;1276;100143;-56
2023/08/26 05:30:49;;;;;;;16.90;12.90;;;;;;;19.14;100.00;98829.35;109996;1276;22387;-58
2023/08/26 05:33:18;;;;;;;11.90;9.90;;;;;;;19.23;100.00;98828.83;110030;1277;23035;-59
2023/08/26 05:35:46;;;;;;;6.50;5.60;;;;;;;19.26;100.00;98820.88;109939;1276;100584;-57
2023/08/26 05:38:16;;;;;;;4.40;3.80;;;;;;;19.30;100.00;98822.80;110045;1277;23025;-57
2023/08/26 05:40:45;;;;;;;3.60;2.90;;;;;;;19.39;100.00;98825.85;109929;1277;99938;-58
2023/08/26 05:43:29;;;;;;;4.90;4.10;;;;;;;19.49;100.00;98825.24;110016;1278;22206;-57
2023/08/26 05:45:58;;;;;;;4.30;3.90;;;;;;;19.58;100.00;98825.36;110031;1277;23303;-57
2023/08/26 05:48:27;;;;;;;4.60;3.50;;;;;;;19.73;100.00;98827.63;109936;1277;100197;-57
2023/08/26 05:51:00;;;;;;;4.20;3.70;;;;;;;19.93;100.00;98826.30;110011;1276;22153;-57
2023/08/26 05:53:29;;;;;;;4.80;4.30;;;;;;;20.10;100.00;98826.89;109947;1274;99729;-57
2023/08/26 05:55:59;;;;;;;9.40;4.70;;;;;;;20.29;100.00;98823.41;110012;1277;22179;-57
2023/08/26 05:58:28;;;;;;;5.00;4.20;;;;;;;20.43;100.00;98831.69;109929;1277;99979;-57
2023/08/26 06:00:56;;;;;;;7.60;5.50;;;;;;;20.47;100.00;98836.81;109970;1278;22144;-58
2023/08/26 06:03:25;;;;;;;5.00;4.50;;;;;;;20.54;100.00;98837.30;110031;1276;22282;-58
2023/08/26 06:05:54;;;;;;;5.90;5.30;;;;;;;20.64;100.00;98832.69;109667;1278;297940;-57
2023/08/26 06:08:25;;;;;;;8.40;6.70;;;;;;;20.79;100.00;98833.25;110001;1276;23207;-57
2023/08/26 06:10:55;;;;;;;15.90;9.90;;;;;;;20.87;100.00;98834.58;109918;1276;99958;-57
2023/08/26 06:13:24;;;;;;;10.40;8.30;;;;;;;20.90;100.00;98837.34;110031;1277;22373;-58
2023/08/26 06:15:56;;;;;;;8.90;7.20;;;;;;;20.88;100.00;98838.92;109963;1277;22526;-58
2023/08/26 06:18:25;;;;;;;6.40;5.50;;;;;;;20.83;100.00;98832.53;109870;1277;99735;-58
2023/08/26 06:20:54;;;;;;;8.60;7.10;;;;;;;20.80;100.00;98832.48;109982;1277;22285;-59
2023/08/26 06:23:23;;;;;;;8.60;6.60;;;;;;;20.78;100.00;98832.35;109942;1277;99958;-58
2023/08/26 06:25:56;;;;;;;6.90;5.50;;;;;;;20.75;100.00;98839.90;110044;1277;22244;-58
2023/08/26 06:28:25;;;;;;;9.00;7.20;;;;;;;20.71;100.00;98844.06;109912;1276;99905;-57
2023/08/26 06:31:01;;;;;;;7.10;6.00;;;;;;;20.64;100.00;98842.14;110029;1277;23256;-57
2023/08/26 06:33:30;;;;;;;8.30;7.20;;;;;;;20.69;100.00;98845.80;109994;1278;23292;-57
2023/08/26 06:35:58;;;;;;;8.50;6.50;;;;;;;20.70;100.00;98848.04;109898;1277;99797;-57
2023/08/26 06:38:27;;;;;;;10.90;6.20;;;;;;;20.66;100.00;98843.84;109986;1273;23241;-57
2023/08/26 06:40:57;;;;;;;7.80;6.70;;;;;;;20.75;100.00;98840.23;109926;1276;100045;-57
2023/08/26 06:43:28;;;;;;;6.60;5.90;;;;;;;20.89;100.00;98837.27;109984;1276;22375;-57
2023/08/26 06:46:03;;;;;;;8.20;6.30;;;;;;;21.22;100.00;98838.34;110034;1276;22312;-58
2023/08/26 06:48:32;;;;;;;8.50;6.40;;;;;;;21.53;100.00;98837.77;109833;1276;99548;-58
2023/08/26 06:51:01;;;;;;;7.20;5.50;;;;;;;21.75;100.00;98836.46;109922;1278;22334;-58
2023/08/26 06:53:31;;;;;;;6.70;5.40;;;;;;;22.03;100.00;98832.04;109800;1278;99010;-58
2023/08/26 06:55:59;;;;;;;10.60;7.40;;;;;;;22.30;100.00;98839.51;109984;1276;22343;-57
2023/08/26 06:58:28;;;;;;;7.50;6.20;;;;;;;22.28;100.00;98842.21;109948;1277;100676;-57
2023/08/26 07:00:57;;;;;;;7.40;6.50;;;;;;;22.19;100.00;98847.98;109937;1271;22166;-57
2023/08/26 07:03:26;;;;;;;8.40;6.50;;;;;;;21.94;100.00;98850.14;110042;1276;22155;-58
2023/08/26 07:05:57;;;;;;;7.30;6.00;;;;;;;21.83;100.00;98857.78;109860;1276;99839;-57
2023/08/26 07:08:36;;;;;;;7.40;5.50;;;;;;;21.81;100.00;98860.14;109978;1277;22637;-57
2023/08/26 07:11:20;;;;;;;8.30;7.10;;;;;;;21.98;100.00;98853.77;109855;1277;99955;-58
2023/08/26 07:13:48;;;;;;;7.60;6.60;;;;;;;22.26;100.00;98857.15;109981;1274;23181;-56
2023/08/26 07:16:17;;;;;;;9.60;6.90;;;;;;;22.56;100.00;98860.10;109902;1276;100513;-56
2023/08/26 07:18:45;;;;;;;5.20;4.70;;;;;;;22.74;100.00;98860.52;109988;1276;22915;-58
2023/08/26 07:21:15;;;;;;;6.90;5.30;;;;;;;22.87;100.00;98864.92;109973;1280;23126;-57
2023/08/26 07:23:44;;;;;;;8.10;7.00;;;;;;;23.06;100.00;98865.92;109866;1277;100304;-57
2023/08/26 07:26:12;;;;;;;8.30;6.20;;;;;;;23.18;100.00;98872.64;109997;1276;22177;-57
2023/08/26 07:28:41;;;;;;;7.20;6.00;;;;;;;23.20;100.00;98873.63;109757;1280;99941;-56
2023/08/26 07:31:10;;;;;;;8.30;6.50;;;;;;;23.43;100.00;98871.45;109903;1279;22112;-57
2023/08/26 07:33:38;;;;;;;6.90;5.70;;;;;;;23.93;100.00;98875.96;109847;1278;23457;-58
2023/08/26 07:36:09;;;;;;;7.70;6.60;;;;;;;24.38;100.00;98883.11;109930;1278;100172;-56
2023/08/26 07:38:38;;;;;;;6.90;6.00;;;;;;;24.64;100.00;98886.06;109980;1277;22269;-57
2023/08/26 07:41:06;;;;;;;8.40;6.50;;;;;;;25.13;100.00;98887.55;109935;1276;99715;-58
2023/08/26 07:43:37;;;;;;;5.40;4.90;;;;;;;25.48;100.00;98888.94;109863;1276;22188;-57
2023/08/26 07:46:06;;;;;;;7.40;5.50;;;;;;;25.28;100.00;98889.08;110011;1277;22176;-57
2023/08/26 07:48:38;;;;;;;7.20;5.60;;;;;;;25.20;100.00;98884.95;109997;1276;22282;-58
2023/08/26 07:51:07;;;;;;;7.80;6.10;;;;;;;25.30;100.00;98886.17;109942;1278;22203;-55
2023/08/26 07:53:36;;;;;;;11.70;7.40;;;;;;;25.30;99.96;98883.59;109876;1276;99843;-56
2023/08/26 07:56:04;;;;;;;10.90;6.60;;;;;;;25.64;100.00;98885.89;110002;1276;22916;-55
2023/08/26 07:58:33;;;;;;;10.20;8.40;;;;;;;26.60;100.00;98887.96;109874;1267;100080;-56
2023/08/26 08:01:02;;;;;;;9.90;6.60;;;;;;;28.14;100.00;98891.67;109946;1276;22169;-56
2023/08/26 08:03:31;;;;;;;6.30;5.30;;;;;;;29.27;99.71;98889.93;110007;1278;22306;-56
2023/08/26 08:05:59;;;;;;;8.60;6.70;;;;;;;29.38;97.31;98892.11;109904;1276;99581;-56
2023/08/26 08:08:28;;;;;;;9.60;5.90;;;;;;;29.81;98.16;98888.65;110014;1276;22326;-56
2023/08/26 08:10:57;;;;;;;6.90;4.70;;;;;;;31.55;99.80;98883.08;109926;1277;99644;-57
2023/08/26 08:13:25;;;;;;;9.50;6.70;;;;;;;32.79;94.58;98882.39;110003;1277;22146;-55
2023/08/26 08:15:54;;;;;;;7.70;5.60;;;;;;;32.82;91.58;98885.22;110030;1277;22145;-56
2023/08/26 08:18:22;;;;;;;6.60;5.80;;;;;;;33.16;92.04;98886.73;109942;1273;99756;-55
2023/08/26 08:20:52;;;;;;;7.70;6.40;;;;;;;32.98;89.42;98885.91;110007;1277;23226;-55
2023/08/26 08:23:21;;;;;;;8.10;5.40;;;;;;;32.57;88.23;98882.89;109932;1278;99572;-56
2023/08/26 08:25:49;;;;;;;3.60;2.90;;;;;;;32.92;87.46;98881.87;109995;1278;22131;-55
2023/08/26 08:28:18;;;;;;;4.70;4.30;;;;;;;32.96;85.58;98882.55;109769;1276;99548;-55
2023/08/26 08:30:47;;;;;;;6.80;4.70;;;;;;;32.45;83.68;98885.63;110005;1277;22449;-54
2023/08/26 08:33:18;;;;;;;5.00;3.70;;;;;;;32.47;83.82;98886.14;110005;1274;22403;-55
2023/08/26 08:35:47;;;;;;;5.70;4.60;;;;;;;32.48;82.63;98884.79;109934;1278;99578;-55
2023/08/26 08:38:16;;;;;;;5.10;4.10;;;;;;;32.33;81.74;98876.64;109970;1276;22376;-54
2023/08/26 08:40:44;;;;;;;5.40;4.20;;;;;;;32.31;81.10;98872.59;109918;1276;100097;-55
2023/08/26 08:43:15;;;;;;;5.30;4.10;;;;;;;32.30;80.49;98873.61;109967;1277;23358;-55
2023/08/26 08:45:56;;;;;;;6.10;4.30;;;;;;;32.40;79.94;98872.95;109960;1280;22275;-55
2023/08/26 08:48:26;;;;;;;9.30;4.00;;;;;;;32.27;79.17;98876.54;109834;1277;100025;-56
2023/08/26 08:51:03;;;;;;;6.40;4.40;;;;;;;31.86;77.73;98879.38;109942;1282;23208;-55
2023/08/26 08:53:33;;;;;;;5.50;3.80;;;;;;;31.67;77.93;98877.30;109891;1277;99656;-55
2023/08/26 08:56:22;;;;;;;4.60;3.60;;;;;;;31.91;77.41;98872.96;109989;1274;22482;-56
2023/08/26 08:59:00;;;;;;;3.50;2.20;;;;;;;32.39;77.57;98879.86;109842;1267;99586;-55
2023/08/26 09:01:30;;;;;;;2.20;1.90;;;;;;;33.26;76.73;98882.15;110008;1277;22296;-55
2023/08/26 09:03:59;;;;;;;2.70;2.40;;;;;;;33.47;75.25;98881.20;109985;1276;22327;-55
2023/08/26 09:06:28;;;;;;;3.90;2.30;;;;;;;33.61;74.01;98884.83;109903;1276;99509;-55
2023/08/26 09:09:07;;;;;;;5.20;2.30;;;;;;;33.90;74.01;98881.79;110001;1276;23246;-55
2023/08/26 09:11:55;;;;;;;3.80;2.30;;;;;;;34.42;72.97;98885.40;109871;1277;99681;-56
2023/08/26 09:14:25;;;;;;;2.40;2.00;;;;;;;34.26;71.90;98885.31;109978;1278;22239;-56
2023/08/26 09:16:55;;;;;;;5.90;2.60;;;;;;;34.97;72.81;98884.38;109911;1276;99716;-56
2023/08/26 09:19:24;;;;;;;4.90;2.30;;;;;;;36.22;72.17;98882.23;109998;1280;22468;-56
2023/08/26 09:21:53;;;;;;;2.90;1.60;;;;;;;37.13;70.92;98876.80;110001;1276;22293;-56
2023/08/26 09:24:25;;;;;;;8.10;2.40;;;;;;;37.60;69.62;98873.24;109898;1277;99526;-56
2023/08/26 09:26:59;;;;;;;2.70;1.80;;;;;;;37.93;68.72;98873.56;109869;1280;22473;-56
2023/08/26 09:29:27;;;;;;;2.20;1.60;;;;;;;37.80;67.45;98874.48;109899;1279;101257;-56
2023/08/26 09:31:58;;;;;;;2.50;1.40;;;;;;;37.48;66.53;98873.32;109933;1276;23142;-58
2023/08/26 09:34:32;;;;;;;3.50;1.70;;;;;;;37.37;65.68;98879.51;109865;1276;99581;-56
2023/08/26 09:37:01;;;;;;;2.60;1.70;;;;;;;37.49;64.89;98879.05;109923;1276;22267;-55
2023/08/26 09:39:29;;;;;;;2.90;1.80;;;;;;;37.63;64.24;98877.13;109936;1273;22120;-56
2023/08/26 09:41:59;;;;;;;3.80;2.40;;;;;;;37.32;62.89;98877.20;109853;1276;100035;-56
2023/08/26 09:44:28;;;;;;;2.10;1.90;;;;;;;36.73;61.86;98881.27;109976;1276;22886;-57
2023/08/26 09:46:57;;;;;;;3.20;1.80;;;;;;;35.98;60.86;98885.63;109838;1278;99753;-56
2023/08/26 09:49:26;;;;;;;3.00;2.20;;;;;;;34.89;59.85;98887.79;109900;1276;22148;-57
2023/08/26 09:51:57;;;;;;;3.00;2.20;;;;;;;33.96;60.05;98883.35;109953;1276;23572;-57
2023/08/26 09:54:31;;;;;;;4.10;2.50;;;;;;;33.08;59.53;98882.54;109764;1280;99970;-57
2023/08/26 09:57:03;;;;;;;3.10;2.10;;;;;;;32.35;59.10;98877.42;109957;1277;22373;-57
2023/08/26 09:59:32;;;;;;;4.00;2.50;;;;;;;31.47;59.28;98885.12;109926;1277;99997;-57
2023/08/26 10:02:11;;;;;;;2.40;2.00;;;;;;;30.98;59.39;98887.33;109968;1283;23066;-56
2023/08/26 10:04:39;;;;;;;2.50;2.10;;;;;;;30.66;59.67;98885.57;109852;1277;99929;-56
2023/08/26 10:07:09;;;;;;;3.10;2.20;;;;;;;30.37;59.89;98888.17;109997;1278;22196;-56
2023/08/26 10:09:41;;;;;;;2.40;2.10;;;;;;;30.18;60.02;98886.90;109986;1277;22241;-56
2023/08/26 10:12:19;;;;;;;2.30;2.10;;;;;;;29.89;59.82;98883.42;109891;1277;99516;-55
2023/08/26 10:14:55;;;;;;;5.20;3.20;;;;;;;29.41;59.86;98883.36;110004;1274;22180;-55
2023/08/26 10:18:24;;;;;;;3.80;2.70;;;;;;;28.95;60.16;98884.90;109728;1278;99593;-56
2023/08/26 10:20:55;;;;;;;2.40;2.20;;;;;;;28.70;60.41;98884.14;109964;1277;22137;-55
2023/08/26 10:23:24;;;;;;;2.50;2.00;;;;;;;28.42;60.94;98880.73;109876;1277;99516;-55
2023/08/26 10:25:54;;;;;;;2.70;2.00;;;;;;;28.24;61.20;98884.99;109993;1276;23010;-56
2023/08/26 10:28:25;;;;;;;7.90;3.40;;;;;;;28.04;61.56;98884.41;109933;1276;99653;-55
2023/08/26 10:30:54;;;;;;;3.30;2.50;;;;;;;27.75;61.56;98884.81;109926;1284;22323;-53
2023/08/26 10:33:24;;;;;;;5.10;3.60;;;;;;;27.51;61.92;98888.74;109998;1276;22285;-53
2023/08/26 10:36:00;;;;;;;5.00;2.80;;;;;;;27.28;62.09;98889.88;109955;1277;99475;-52
2023/08/26 10:38:28;;;;;;;2.80;2.50;;;;;;;27.11;62.44;98884.50;109896;1280;22072;-53
2023/08/26 10:41:10;;;;;;;2.60;2.40;;;;;;;27.06;62.90;98883.73;109931;1276;99589;-54
2023/08/26 10:43:51;;;;;;;3.70;2.80;;;;;;;27.09;63.38;98888.15;110002;1277;22907;-55
2023/08/26 10:46:52;;;;;;;4.20;2.50;;;;;;;27.11;63.67;98896.69;109897;1278;99661;-54
2023/08/26 10:49:28;;;;;;;2.50;2.30;;;;;;;26.96;64.06;98899.17;109868;1280;22247;-52
2023/08/26 10:52:09;;;;;;;4.90;3.40;;;;;;;26.36;63.60;98910.27;109993;1279;22287;-54
2023/08/26 10:54:42;;;;;;;4.10;3.20;;;;;;;25.72;64.07;98907.91;109973;1276;22186;-54
2023/08/26 10:57:11;;;;;;;5.80;3.00;;;;;;;25.26;65.13;98906.27;109846;1279;22163;-52
2023/08/26 10:59:41;;;;;;;4.60;3.00;;;;;;;25.03;66.07;98906.14;109922;1277;99471;-54
2023/08/26 11:02:13;;;;;;;3.70;3.00;;;;;;;25.03;66.34;98909.63;110028;1276;22911;-54
2023/08/26 11:04:44;;;;;;;2.80;2.60;;;;;;;25.01;66.93;98907.27;109953;1276;99656;-53
2023/08/26 11:07:16;;;;;;;3.70;3.30;;;;;;;25.03;67.33;98913.13;110014;1276;22570;-51
2023/08/26 11:09:45;;;;;;;3.30;2.90;;;;;;;25.09;67.75;98915.83;110001;1267;22173;-52
2023/08/26 11:12:25;;;;;;;5.90;3.00;;;;;;;25.14;68.03;98918.58;109917;1277;100267;-52
2023/08/26 11:15:05;;;;;;;5.30;3.00;;;;;;;25.16;68.02;98922.29;109973;1277;22169;-52
2023/08/26 11:17:36;;;;;;;3.30;2.70;;;;;;;25.11;68.25;98925.19;109933;1278;99545;-51
2023/08/26 11:20:20;;;;;;;7.40;4.30;;;;;;;24.97;67.97;98932.44;109991;1277;22312;-52
2023/08/26 11:22:49;;;;;;;4.20;3.10;;;;;;;24.78;68.50;98942.69;109914;1280;99831;-52
2023/08/26 11:25:18;;;;;;;4.20;3.10;;;;;;;24.64;68.97;98942.85;110031;1276;22270;-53
2023/08/26 11:27:46;;;;;;;4.30;3.20;;;;;;;24.52;69.28;98945.58;109955;1276;22296;-54
2023/08/26 11:30:16;;;;;;;4.20;3.20;;;;;;;24.39;69.55;98944.42;109923;1276;99799;-54
2023/08/26 11:32:49;;;;;;;4.40;3.60;;;;;;;24.28;69.88;98935.52;110000;1280;23256;-54
2023/08/26 11:35:19;;;;;;;3.80;2.60;;;;;;;24.22;70.15;98931.19;109942;1274;101285;-53
2023/08/26 11:37:48;;;;;;;3.80;3.40;;;;;;;24.16;70.46;98937.25;109984;1276;22720;-52
2023/08/26 11:40:17;;;;;;;4.60;3.40;;;;;;;24.12;70.79;98942.33;109895;1276;99617;-52